createdAt,value
2022-09-11T00:02:33.739Z,98628.84
2022-09-11T00:05:19.078Z,98619.28
2022-09-11T00:08:04.371Z,98620.50
2022-09-11T00:10:49.986Z,98620.50
2022-09-11T00:13:38.033Z,98629.63
2022-09-11T00:16:29.329Z,98626.06
2022-09-11T00:19:18.848Z,98622.50
2022-09-11T00:22:05.955Z,98624.50
2022-09-11T00:24:51.112Z,98618.94
2022-09-11T00:27:36.631Z,98616.97
2022-09-11T00:30:22.854Z,98620.94
2022-09-11T00:33:08.142Z,98620.94
2022-09-11T00:36:06.044Z,98616.63
2022-09-11T00:38:52.265Z,98612.63
2022-09-11T00:41:40.067Z,98622.16
2022-09-11T00:44:25.302Z,98622.16
2022-09-11T00:47:16.143Z,98626.91
2022-09-11T00:50:15.329Z,98624.59
2022-09-11T00:53:06.570Z,98621.38
2022-09-11T00:55:56.906Z,98620.59
2022-09-11T00:58:46.716Z,98621.38
2022-09-11T01:01:31.937Z,98619.81
2022-09-11T01:04:17.750Z,98620.25
2022-09-11T01:07:04.310Z,98623.00
2022-09-11T01:09:51.227Z,98616.69
2022-09-11T01:12:56.485Z,98613.50
2022-09-11T01:15:52.115Z,98609.94
2022-09-11T01:18:49.975Z,98614.69
2022-09-11T01:21:56.927Z,98608.38
2022-09-11T01:25:09.092Z,98615.91
2022-09-11T01:28:00.867Z,98614.34
2022-09-11T01:30:54.838Z,98609.59
2022-09-11T01:33:46.163Z,98608.78
2022-09-11T01:36:39.058Z,98614.34
2022-09-11T01:39:32.932Z,98612.38
2022-09-11T01:42:23.162Z,98606.81
2022-09-11T01:45:12.131Z,98607.25
2022-09-11T01:48:00.176Z,98619.13
2022-09-11T01:50:48.141Z,98609.59
2022-09-11T01:53:38.878Z,98616.34
2022-09-11T01:56:29.788Z,98613.56
2022-09-11T01:59:19.275Z,98610.00
2022-09-11T02:02:07.830Z,98611.56
2022-09-11T02:05:04.522Z,98611.25
2022-09-11T02:08:03.093Z,98606.47
2022-09-11T02:10:56.346Z,98614.78
2022-09-11T02:14:05.082Z,98603.69
2022-09-11T02:17:10.953Z,98606.47
2022-09-11T02:20:00.600Z,98611.66
2022-09-11T02:22:45.886Z,98611.25
2022-09-11T02:25:31.231Z,98608.88
2022-09-11T02:28:17.241Z,98610.44
2022-09-11T02:31:03.486Z,98612.00
2022-09-11T02:33:49.879Z,98610.44
2022-09-11T02:37:04.703Z,98612.00
2022-09-11T02:40:06.459Z,98608.88
2022-09-11T02:43:19.078Z,98606.13
2022-09-11T02:46:34.490Z,98604.13
2022-09-11T02:49:31.935Z,98604.13
2022-09-11T02:52:31.907Z,98604.13
2022-09-11T02:55:25.344Z,98601.75
2022-09-11T02:58:26.880Z,98608.88
2022-09-11T03:01:13.526Z,98605.78
2022-09-11T03:03:59.687Z,98605.78
2022-09-11T03:06:45.407Z,98607.75
2022-09-11T03:09:34.924Z,98609.75
2022-09-11T03:12:27.271Z,98614.50
2022-09-11T03:15:12.545Z,98609.75
2022-09-11T03:18:00.227Z,98616.09
2022-09-11T03:20:49.820Z,98618.88
2022-09-11T03:23:35.352Z,98611.75
2022-09-11T03:26:20.867Z,98606.97
2022-09-11T03:29:08.479Z,98605.41
2022-09-11T03:31:54.737Z,98615.75
2022-09-11T03:34:40.268Z,98613.75
2022-09-11T03:37:27.098Z,98613.75
2022-09-11T03:40:14.277Z,98612.97
2022-09-11T03:43:00.462Z,98616.50
2022-09-11T03:45:51.971Z,98623.28
2022-09-11T03:48:37.562Z,98634.38
2022-09-11T03:51:22.693Z,98633.16
2022-09-11T03:54:07.939Z,98633.56
2022-09-11T03:56:53.679Z,98639.13
2022-09-11T03:59:39.187Z,98639.94
2022-09-11T04:02:24.671Z,98639.13
2022-09-11T04:05:11.933Z,98636.34
2022-09-11T04:07:59.371Z,98635.56
2022-09-11T04:10:44.559Z,98641.13
2022-09-11T04:13:32.226Z,98645.47
2022-09-11T04:16:20.497Z,98645.47
2022-09-11T04:19:11.591Z,98649.44
2022-09-11T04:21:56.802Z,98646.66
2022-09-11T04:24:42.123Z,98643.91
2022-09-11T04:27:27.558Z,98650.66
2022-09-11T04:30:13.851Z,98653.44
2022-09-11T04:32:59.402Z,98649.88
2022-09-11T04:35:44.522Z,98648.31
2022-09-11T04:38:29.850Z,98653.88
2022-09-11T04:41:16.333Z,98650.66
2022-09-11T04:44:05.398Z,98653.88
2022-09-11T04:46:54.213Z,98658.63
2022-09-11T04:49:41.289Z,98656.63
2022-09-11T04:52:29.568Z,98647.91
2022-09-11T04:55:15.110Z,98661.75
2022-09-11T04:58:00.529Z,98655.00
2022-09-11T05:00:45.722Z,98662.53
2022-09-11T05:03:32.946Z,98666.09
2022-09-11T05:06:19.747Z,98672.41
2022-09-11T05:09:08.813Z,98666.09
2022-09-11T05:11:54.505Z,98676.75
2022-09-11T05:14:42.120Z,98674.00
2022-09-11T05:17:27.749Z,98678.75
2022-09-11T05:20:13.335Z,98678.75
2022-09-11T05:22:59.905Z,98686.28
2022-09-11T05:25:45.598Z,98684.31
2022-09-11T05:28:31.082Z,98684.31
2022-09-11T05:31:18.611Z,98696.94
2022-09-11T05:34:05.156Z,98694.94
2022-09-11T05:36:52.138Z,98702.50
2022-09-11T05:39:37.717Z,98706.03
2022-09-11T05:42:24.878Z,98705.56
2022-09-11T05:45:13.202Z,98710.66
2022-09-11T05:47:58.492Z,98711.00
2022-09-11T05:50:52.901Z,98708.59
2022-09-11T05:53:39.226Z,98716.84
2022-09-11T05:56:28.211Z,98714.06
2022-09-11T05:59:18.200Z,98717.97
2022-09-11T06:02:07.144Z,98720.31
2022-09-11T06:05:01.434Z,98729.78
2022-09-11T06:07:46.826Z,98736.81
2022-09-11T06:10:32.780Z,98737.59
2022-09-11T06:13:17.984Z,98741.13
2022-09-11T06:16:09.043Z,98740.25
2022-09-11T06:18:54.777Z,98743.84
2022-09-11T06:21:40.883Z,98744.56
2022-09-11T06:24:38.776Z,98743.75
2022-09-11T06:27:25.113Z,98755.66
2022-09-11T06:30:12.264Z,98749.69
2022-09-11T06:32:59.093Z,98754.81
2022-09-11T06:35:46.134Z,98758.78
2022-09-11T06:38:32.242Z,98760.38
2022-09-11T06:41:18.004Z,98759.94
2022-09-11T06:44:03.752Z,98766.63
2022-09-11T06:46:50.203Z,98758.66
2022-09-11T06:49:36.436Z,98766.16
2022-09-11T06:52:41.111Z,98763.31
2022-09-11T06:55:33.356Z,98761.41
2022-09-11T06:58:25.549Z,98760.19
2022-09-11T07:01:14.975Z,98760.97
2022-09-11T07:04:02.929Z,98765.69
2022-09-11T07:06:51.260Z,98765.16
2022-09-11T07:12:24.051Z,98773.47
2022-09-11T07:15:10.996Z,98770.63
2022-09-11T07:17:57.830Z,98778.09
2022-09-11T07:20:43.084Z,98774.19
2022-09-11T07:23:29.384Z,98787.53
2022-09-11T07:26:16.756Z,98787.97
2022-09-11T07:29:02.799Z,98778.03
2022-09-11T07:31:48.137Z,98789.13
2022-09-11T07:34:34.782Z,98788.31
2022-09-11T07:37:23.882Z,98789.13
2022-09-11T07:40:10.224Z,98793.88
2022-09-11T07:42:55.540Z,98797.00
2022-09-11T07:45:41.736Z,98796.94
2022-09-11T07:48:26.823Z,98800.91
2022-09-11T07:51:14.644Z,98795.28
2022-09-11T07:54:01.274Z,98798.41
2022-09-11T07:56:49.985Z,98795.22
2022-09-11T07:59:35.837Z,98797.53
2022-09-11T08:02:23.235Z,98810.22
2022-09-11T08:05:08.579Z,98801.44
2022-09-11T08:07:53.994Z,98801.38
2022-09-11T08:10:40.927Z,98806.16
2022-09-11T08:13:27.059Z,98807.28
2022-09-11T08:16:12.893Z,98810.81
2022-09-11T08:18:59.834Z,98811.19
2022-09-11T08:21:47.830Z,98813.19
2022-09-11T08:24:33.890Z,98823.41
2022-09-11T08:27:21.677Z,98827.78
2022-09-11T08:30:08.102Z,98831.31
2022-09-11T08:32:55.273Z,98832.88
2022-09-11T08:35:41.291Z,98831.22
2022-09-11T08:38:28.147Z,98831.22
2022-09-11T08:41:23.853Z,98837.13
2022-09-11T08:44:09.543Z,98838.72
2022-09-11T08:47:00.977Z,98839.50
2022-09-11T08:49:58.521Z,98831.94
2022-09-11T08:52:45.517Z,98845.81
2022-09-11T08:55:38.516Z,98844.16
2022-09-11T08:59:09.194Z,98844.63
2022-09-11T09:02:31.969Z,98843.75
2022-09-11T09:05:37.222Z,98843.38
2022-09-11T09:08:22.553Z,98843.38
2022-09-11T09:11:14.286Z,98841.38
2022-09-11T09:14:15.345Z,98843.38
2022-09-11T09:17:04.207Z,98845.31
2022-09-11T09:20:01.793Z,98846.09
2022-09-11T09:22:57.140Z,98848.78
2022-09-11T09:25:45.898Z,98855.56
2022-09-11T09:28:40.907Z,98857.09
2022-09-11T09:31:30.609Z,98859.56
2022-09-11T09:34:20.474Z,98857.56
2022-09-11T09:37:11.448Z,98862.41
2022-09-11T09:39:57.428Z,98865.91
2022-09-11T09:43:12.301Z,98871.88
2022-09-11T09:46:00.865Z,98871.44
2022-09-11T09:48:47.495Z,98873.00
2022-09-11T09:51:33.014Z,98875.00
2022-09-11T09:54:22.917Z,98876.13
2022-09-11T09:57:11.519Z,98872.59
2022-09-11T10:00:14.449Z,98876.91
2022-09-11T10:02:59.964Z,98882.47
2022-09-11T10:05:46.455Z,98891.16
2022-09-11T10:08:42.786Z,98891.16
2022-09-11T10:11:29.318Z,98897.06
2022-09-11T10:14:49.327Z,98897.50
2022-09-11T10:17:30.311Z,98895.50
2022-09-11T10:20:15.920Z,98897.94
2022-09-11T10:23:23.464Z,98906.28
2022-09-11T10:26:16.551Z,98907.47
2022-09-11T10:29:08.514Z,98907.06
2022-09-11T10:31:59.659Z,98906.69
2022-09-11T10:34:45.554Z,98917.41
2022-09-11T10:37:34.285Z,98916.63
2022-09-11T10:40:22.848Z,98914.97
2022-09-11T10:43:24.462Z,98923.31
2022-09-11T10:46:19.018Z,98932.84
2022-09-11T10:49:18.444Z,98936.41
2022-09-11T10:52:22.111Z,98931.28
2022-09-11T10:55:15.534Z,98935.63
2022-09-11T10:58:21.303Z,98938.03
2022-09-11T11:01:07.040Z,98942.81
2022-09-11T11:03:52.643Z,98948.38
2022-09-11T11:07:07.116Z,98955.94
2022-09-11T11:10:24.956Z,98963.50
2022-09-11T11:13:14.692Z,98971.03
2022-09-11T11:16:05.668Z,98959.50
2022-09-11T11:19:24.156Z,98963.06
2022-09-11T11:22:24.857Z,98965.00
2022-09-11T11:25:17.461Z,98976.09
2022-09-11T11:28:26.890Z,98986.34
2022-09-11T11:32:09.781Z,98993.47
2022-09-11T11:35:12.424Z,98983.56
2022-09-11T11:38:14.485Z,98999.09
2022-09-11T11:41:12.236Z,98991.19
2022-09-11T11:44:01.698Z,98991.97
2022-09-11T11:46:52.432Z,98993.56
2022-09-11T11:49:54.911Z,98996.75
2022-09-11T11:52:54.175Z,98998.34
2022-09-11T11:56:00.222Z,98997.53
2022-09-11T11:59:10.167Z,98998.75
2022-09-11T12:02:05.335Z,98996.75
2022-09-11T12:05:10.250Z,99013.78
2022-09-11T12:07:55.684Z,99004.66
2022-09-11T12:10:56.406Z,99011.78
2022-09-11T12:13:48.031Z,99003.09
2022-09-11T12:16:35.149Z,99015.00
2022-09-11T12:19:25.324Z,99016.97
2022-09-11T12:22:12.839Z,99013.44
2022-09-11T12:25:01.190Z,99016.19
2022-09-11T12:27:46.647Z,99020.56
2022-09-11T12:30:59.866Z,99021.75
2022-09-11T12:33:46.629Z,99017.84
2022-09-11T12:36:49.721Z,99013.88
2022-09-11T12:39:53.332Z,99014.66
2022-09-11T12:42:38.803Z,99012.59
2022-09-11T12:45:37.094Z,99013.00
2022-09-11T12:48:44.314Z,99014.56
2022-09-11T12:51:35.237Z,99023.69
2022-09-11T12:54:24.770Z,99015.72
2022-09-11T12:57:35.406Z,99012.59
2022-09-11T13:00:35.153Z,99026.03
2022-09-11T13:03:24.127Z,99014.91
2022-09-11T13:06:13.638Z,99016.50
2022-09-11T13:09:01.645Z,99011.72
2022-09-11T13:11:52.387Z,99011.72
2022-09-11T13:14:49.121Z,99011.31
2022-09-11T13:17:46.851Z,99011.72
2022-09-11T13:20:32.453Z,99006.97
2022-09-11T13:23:18.931Z,99010.50
2022-09-11T13:26:08.167Z,98999.41
2022-09-11T13:28:56.437Z,98998.63
2022-09-11T13:31:43.102Z,98998.19
2022-09-11T13:34:30.151Z,99000.59
2022-09-11T13:37:31.281Z,98987.13
2022-09-11T13:40:22.507Z,98991.91
2022-09-11T13:43:10.191Z,98995.84
2022-09-11T13:46:18.170Z,98993.84
2022-09-11T13:49:20.481Z,98992.66
2022-09-11T13:52:07.094Z,98991.47
2022-09-11T13:54:55.297Z,98976.75
2022-09-11T13:58:00.798Z,98967.63
2022-09-11T14:00:48.695Z,98975.19
2022-09-11T14:03:34.319Z,98975.53
2022-09-11T14:06:20.825Z,98980.66
2022-09-11T14:09:06.432Z,98971.97
2022-09-11T14:11:52.715Z,98974.31
2022-09-11T14:14:38.237Z,98963.91
2022-09-11T14:17:24.034Z,98963.56
2022-09-11T14:20:20.395Z,98968.69
2022-09-11T14:23:06.911Z,98964.31
2022-09-11T14:26:06.200Z,98954.78
2022-09-11T14:29:00.248Z,98956.34
2022-09-11T14:31:45.940Z,98948.34
2022-09-11T14:34:31.438Z,98942.44
2022-09-11T14:37:17.407Z,98955.91
2022-09-11T14:40:07.145Z,98957.13
2022-09-11T14:42:53.165Z,98955.91
2022-09-11T14:45:38.537Z,98949.91
2022-09-11T14:48:25.784Z,98949.91
2022-09-11T14:51:13.606Z,98954.28
2022-09-11T14:53:59.032Z,98947.94
2022-09-11T14:56:44.820Z,98953.50
2022-09-11T14:59:30.109Z,98949.59
2022-09-11T15:02:18.996Z,98958.25
2022-09-11T15:05:07.765Z,98951.13
2022-09-11T15:07:53.153Z,98962.59
2022-09-11T15:10:38.492Z,98962.25
2022-09-11T15:13:23.825Z,98961.91
2022-09-11T15:16:12.021Z,98967.47
2022-09-11T15:18:58.316Z,98971.13
2022-09-11T15:21:44.318Z,98965.91
2022-09-11T15:24:30.197Z,98963.97
2022-09-11T15:27:16.023Z,98965.56
2022-09-11T15:30:01.313Z,98975.09
2022-09-11T15:32:47.775Z,98979.09
2022-09-11T15:35:33.343Z,98973.03
2022-09-11T15:38:18.840Z,98971.81
2022-09-11T15:41:04.200Z,98973.38
2022-09-11T15:43:50.602Z,98971.03
2022-09-11T15:46:36.012Z,98969.38
2022-09-11T15:49:22.721Z,98970.94
2022-09-11T15:52:08.783Z,98963.75
2022-09-11T15:54:54.387Z,98961.72
2022-09-11T15:57:39.508Z,98962.97
2022-09-11T16:00:24.825Z,98974.44
2022-09-11T16:03:11.940Z,98972.06
2022-09-11T16:05:57.660Z,98971.66
2022-09-11T16:08:43.502Z,98980.78
2022-09-11T16:11:29.797Z,98974.78
2022-09-11T16:14:21.126Z,98977.22
2022-09-11T16:17:07.678Z,98976.44
2022-09-11T16:19:53.286Z,98973.31
2022-09-11T16:22:38.546Z,98969.72
2022-09-11T16:25:23.899Z,98972.50
2022-09-11T16:28:09.266Z,98971.31
2022-09-11T16:30:54.799Z,98970.53
2022-09-11T16:33:47.917Z,98968.41
2022-09-11T16:36:38.484Z,98970.78
2022-09-11T16:39:24.034Z,98970.00
2022-09-11T16:42:09.021Z,98964.03
2022-09-11T16:44:54.389Z,98970.72
2022-09-11T16:47:39.818Z,98973.91
2022-09-11T16:50:25.270Z,98973.47
2022-09-11T16:53:10.855Z,98967.47
2022-09-11T16:55:56.180Z,98968.28
2022-09-11T16:58:42.219Z,98968.34
2022-09-11T17:01:28.286Z,98966.78
2022-09-11T17:04:13.727Z,98960.44
2022-09-11T17:06:58.995Z,98964.50
2022-09-11T17:09:45.956Z,98960.59
2022-09-11T17:12:31.404Z,98957.94
2022-09-11T17:15:19.428Z,98963.13
2022-09-11T17:18:05.068Z,98960.25
2022-09-11T17:20:56.895Z,98964.69
2022-09-11T17:23:43.003Z,98959.91
2022-09-11T17:26:28.483Z,98961.56
2022-09-11T17:29:13.787Z,98962.44
2022-09-11T17:32:23.638Z,98967.25
2022-09-11T17:35:05.797Z,98967.31
2022-09-11T17:37:51.213Z,98975.28
2022-09-11T17:40:37.187Z,98981.72
2022-09-11T17:43:22.279Z,98980.94
2022-09-11T17:46:13.071Z,98983.31
2022-09-11T17:48:59.378Z,98986.50
2022-09-11T17:51:44.967Z,98977.09
2022-09-11T17:54:30.041Z,98985.78
2022-09-11T17:57:16.141Z,98984.31
2022-09-11T18:00:01.402Z,98987.88
2022-09-11T18:02:49.557Z,98990.28
2022-09-11T18:05:35.440Z,98995.59
2022-09-11T18:08:21.129Z,99000.69
2022-09-11T18:11:08.422Z,98999.50
2022-09-11T18:13:54.870Z,99003.47
2022-09-11T18:16:41.008Z,99003.47
2022-09-11T18:19:28.237Z,99004.69
2022-09-11T18:22:13.888Z,99007.47
2022-09-11T18:25:00.108Z,99003.56
2022-09-11T18:27:49.891Z,98997.22
2022-09-11T18:30:39.339Z,99004.34
2022-09-11T18:33:26.225Z,99003.97
2022-09-11T18:36:14.264Z,99004.44
2022-09-11T18:39:02.261Z,99004.84
2022-09-11T18:41:49.669Z,99003.72
2022-09-11T18:44:35.765Z,99006.91
2022-09-11T18:47:22.134Z,99005.34
2022-09-11T18:50:08.397Z,99017.66
2022-09-11T18:52:53.673Z,99016.88
2022-09-11T18:55:39.088Z,99006.97
2022-09-11T18:58:24.817Z,99016.09
2022-09-11T19:01:14.648Z,99015.75
2022-09-11T19:04:05.402Z,99026.84
2022-09-11T19:06:50.973Z,99028.06
2022-09-11T19:09:36.358Z,99035.59
2022-09-11T19:12:21.649Z,99028.91
2022-09-11T19:15:11.287Z,99028.91
2022-09-11T19:18:00.253Z,99031.69
2022-09-11T19:20:45.675Z,99043.22
2022-09-11T19:23:37.048Z,99042.81
2022-09-11T19:26:25.605Z,99043.22
2022-09-11T19:29:13.390Z,99043.66
2022-09-11T19:32:01.258Z,99041.66
2022-09-11T19:34:47.587Z,99046.88
2022-09-11T19:37:34.995Z,99050.84
2022-09-11T19:40:20.617Z,99042.94
2022-09-11T19:43:07.097Z,99048.06
2022-09-11T19:46:00.855Z,99045.72
2022-09-11T19:48:48.485Z,99056.75
2022-09-11T19:51:37.185Z,99050.72
2022-09-11T19:54:23.044Z,99049.13
2022-09-11T19:57:08.602Z,99053.91
2022-09-11T19:59:54.243Z,99060.34
2022-09-11T20:02:39.327Z,99063.53
2022-09-11T20:05:24.607Z,99062.75
2022-09-11T20:08:15.817Z,99060.38
2022-09-11T20:11:07.397Z,99065.16
2022-09-11T20:13:54.290Z,99061.66
2022-09-11T20:16:39.883Z,99064.56
2022-09-11T20:19:25.180Z,99063.72
2022-09-11T20:22:10.854Z,99053.03
2022-09-11T20:24:56.127Z,99049.84
2022-09-11T20:27:41.139Z,99055.38
2022-09-11T20:30:26.557Z,99055.03
2022-09-11T20:33:12.853Z,99052.25
2022-09-11T20:38:44.041Z,99058.16
2022-09-11T20:41:30.640Z,99047.91
2022-09-11T20:44:15.879Z,99048.69
2022-09-11T20:47:01.225Z,99050.69
2022-09-11T20:49:46.295Z,99042.38
2022-09-11T20:52:33.266Z,99044.78
2022-09-11T20:55:21.617Z,99039.69
2022-09-11T20:58:06.862Z,99040.06
2022-09-11T21:00:52.592Z,99033.72
2022-09-11T21:03:38.016Z,99034.94
2022-09-11T21:06:26.622Z,99038.50
2022-09-11T21:09:12.114Z,99034.59
2022-09-11T21:11:57.329Z,99041.41
2022-09-11T21:14:43.250Z,99037.88
2022-09-11T21:17:28.535Z,99038.69
2022-09-11T21:20:13.803Z,99036.28
2022-09-11T21:22:59.175Z,99037.41
2022-09-11T21:25:44.390Z,99042.63
2022-09-11T21:28:30.937Z,99041.06
2022-09-11T21:31:16.459Z,99036.69
2022-09-11T21:34:01.698Z,99036.69
2022-09-11T21:36:46.977Z,99045.47
2022-09-11T21:39:32.154Z,99042.69
2022-09-11T21:42:17.501Z,99049.03
2022-09-11T21:45:02.756Z,99043.84
2022-09-11T21:47:47.935Z,99038.69
2022-09-11T21:50:33.210Z,99040.69
2022-09-11T21:53:18.921Z,99038.75
2022-09-11T21:56:05.356Z,99039.94
2022-09-11T21:58:51.483Z,99039.56
2022-09-11T22:01:36.955Z,99038.03
2022-09-11T22:04:22.327Z,99036.81
2022-09-11T22:07:07.607Z,99035.66
2022-09-11T22:09:53.236Z,99032.47
2022-09-11T22:12:38.724Z,99034.88
2022-09-11T22:15:24.242Z,99037.28
2022-09-11T22:18:09.998Z,99032.16
2022-09-11T22:21:00.323Z,99032.59
2022-09-11T22:23:46.055Z,99031.78
2022-09-11T22:26:32.530Z,99033.78
2022-09-11T22:29:17.966Z,99029.47
2022-09-11T22:32:04.733Z,99029.47
2022-09-11T22:34:49.814Z,99035.78
2022-09-11T22:37:34.914Z,99032.66
2022-09-11T22:40:20.581Z,99032.25
2022-09-11T22:43:06.122Z,99038.22
2022-09-11T22:45:52.432Z,99030.75
2022-09-11T22:48:37.939Z,99032.72
2022-09-11T22:51:23.004Z,99027.97
2022-09-11T22:54:08.368Z,99032.72
2022-09-11T22:56:53.612Z,99025.19
2022-09-11T22:59:39.093Z,99023.56
2022-09-11T23:02:25.214Z,99026.38
2022-09-11T23:05:29.021Z,99024.00
2022-09-11T23:08:14.832Z,99028.00
2022-09-11T23:11:02.814Z,99026.00
2022-09-11T23:13:52.168Z,99030.00
2022-09-11T23:16:37.794Z,99031.97
2022-09-11T23:19:23.151Z,99031.97
2022-09-11T23:22:08.318Z,99028.00
2022-09-11T23:24:53.673Z,99027.25
2022-09-11T23:27:38.818Z,99026.44
2022-09-11T23:30:24.238Z,99028.44
2022-09-11T23:33:10.059Z,99031.97
2022-09-11T23:35:55.600Z,99033.19
2022-09-11T23:38:44.069Z,99026.09
2022-09-11T23:41:29.567Z,99029.66
2022-09-11T23:44:14.888Z,99027.28
2022-09-11T23:47:02.161Z,99021.72
2022-09-11T23:49:48.130Z,99021.31
2022-09-11T23:52:36.439Z,99017.78
2022-09-11T23:55:22.042Z,99016.19
2022-09-11T23:58:07.249Z,99013.06
